Time;durP1;ratioP1;P1;durP2;ratioP2;P2;SDS_P1;SDS_P2;PMS_P1;PMS_P2;Temp;Humidity;BMP_temperature;BMP_pressure;BME280_temperature;BME280_humidity;BME280_pressure;Samples;Min_cycle;Max_cycle;Signal;HPM_P1;HPM_P2
2023/04/13 14:59:15;;;;;;;4.57;1.47;;;12.90;79.00;;;;;;5051797;27;1924142;-62
2023/04/13 15:01:42;;;;;;;6.63;1.42;;;13.00;78.50;;;;;;5084589;28;20028;-62
2023/04/13 15:04:07;;;;;;;5.05;1.30;;;13.30;78.00;;;;;;5087808;28;20530;-62
2023/04/13 15:06:34;;;;;;;4.65;1.45;;;13.60;79.80;;;;;;5088538;28;20060;-62
2023/04/13 15:09:01;;;;;;;4.07;1.13;;;14.00;78.00;;;;;;5087670;28;20021;-62
2023/04/13 15:11:27;;;;;;;2.95;1.08;;;14.40;73.30;;;;;;5081719;28;20393;-62
2023/04/13 15:13:53;;;;;;;4.60;1.00;;;14.70;75.10;;;;;;5067748;28;20028;-62
2023/04/13 15:16:18;;;;;;;3.97;1.08;;;15.30;71.20;;;;;;5067476;28;20090;-63
2023/04/13 15:18:44;;;;;;;6.25;1.58;;;15.80;70.40;;;;;;5069653;28;20036;-63
2023/04/13 15:21:10;;;;;;;6.43;1.00;;;16.10;65.40;;;;;;5087572;28;20161;-61
2023/04/13 15:23:35;;;;;;;3.47;1.42;;;16.30;63.80;;;;;;5086696;28;20032;-61
2023/04/13 15:26:01;;;;;;;3.95;1.25;;;16.40;62.20;;;;;;5082234;28;20553;-60
2023/04/13 15:28:27;;;;;;;4.68;0.95;;;16.50;61.20;;;;;;5066827;28;20024;-63
2023/04/13 15:30:52;;;;;;;4.50;1.10;;;16.50;58.40;;;;;;5050215;28;20020;-63
2023/04/13 15:33:18;;;;;;;4.35;1.00;;;16.50;58.60;;;;;;5053431;28;20024;-61
2023/04/13 15:35:44;;;;;;;3.40;1.00;;;16.70;57.20;;;;;;5087057;28;20476;-60
2023/04/13 15:38:10;;;;;;;4.43;1.08;;;17.00;57.30;;;;;;5068210;28;20102;-60
2023/04/13 15:40:36;;;;;;;3.58;1.10;;;17.40;53.90;;;;;;5084520;28;20024;-63
2023/04/13 15:43:05;;;;;;;5.20;1.10;;;17.60;52.10;;;;;;5076391;28;20029;-63
2023/04/13 15:45:31;;;;;;;6.22;1.10;;;17.60;52.00;;;;;;5054227;28;20021;-63
2023/04/13 15:47:56;;;;;;;3.10;0.80;;;17.70;49.50;;;;;;5065380;28;20072;-63
2023/04/13 15:50:23;;;;;;;4.40;0.85;;;17.90;50.10;;;;;;5067475;28;20021;-61
2023/04/13 15:52:50;;;;;;;4.35;1.20;;;18.10;46.80;;;;;;5067274;28;20038;-61
2023/04/13 15:55:16;;;;;;;3.47;0.95;;;17.80;45.50;;;;;;5056886;28;20115;-61
2023/04/13 15:57:41;;;;;;;4.20;1.23;;;17.70;46.90;;;;;;5087131;28;20134;-62
2023/04/13 16:00:08;;;;;;;4.47;1.27;;;17.90;47.40;;;;;;5087032;28;20033;-61
2023/04/13 16:02:34;;;;;;;2.58;0.75;;;17.90;46.80;;;;;;5085189;28;20036;-62
2023/04/13 16:05:00;;;;;;;5.20;1.23;;;17.60;47.20;;;;;;5068473;28;20112;-61
2023/04/13 16:07:25;;;;;;;4.47;1.05;;;17.30;48.60;;;;;;5086430;28;20107;-62
2023/04/13 16:09:57;;;;;;;2.83;0.70;;;17.40;48.60;;;;;;5076327;28;20017;-62
2023/04/13 16:12:33;;;;;;;3.63;0.90;;;17.60;48.70;;;;;;5071169;28;20095;-62
2023/04/13 16:15:00;;;;;;;5.95;1.17;;;18.00;47.40;;;;;;5069942;28;20059;-62
2023/04/13 16:17:32;;;;;;;3.00;0.90;;;18.10;47.10;;;;;;5053874;28;20429;-63
2023/04/13 16:22:40;;;;;;;7.78;1.35;;;18.90;45.40;;;;;;5071852;28;20036;-63
2023/04/13 16:25:08;;;;;;;2.67;0.90;;;19.10;44.60;;;;;;5071529;28;20190;-63
2023/04/13 16:27:34;;;;;;;3.38;1.38;;;19.10;45.00;;;;;;5070071;28;20025;-63
2023/04/13 16:30:04;;;;;;;3.03;1.02;;;19.30;45.00;;;;;;5071801;28;20028;-63
2023/04/13 16:32:30;;;;;;;2.97;0.75;;;19.50;45.70;;;;;;5067804;28;20053;-63
2023/04/13 16:34:56;;;;;;;4.38;0.90;;;19.90;45.00;;;;;;5044802;28;20070;-62
2023/04/13 16:37:22;;;;;;;2.97;1.02;;;20.10;42.90;;;;;;5060799;28;20063;-63
2023/04/13 16:39:47;;;;;;;5.68;0.90;;;20.00;43.20;;;;;;5072574;28;20059;-63
2023/04/13 16:42:16;;;;;;;3.75;0.77;;;19.70;42.20;;;;;;5072641;28;20035;-62
2023/04/13 16:44:42;;;;;;;5.72;0.90;;;19.50;43.00;;;;;;5056606;28;20585;-63
2023/04/13 16:47:07;;;;;;;4.03;1.00;;;19.10;43.00;;;;;;5052329;28;20025;-62
2023/04/13 16:49:33;;;;;;;3.53;0.98;;;18.70;44.10;;;;;;5052935;28;20032;-62
2023/04/13 16:51:59;;;;;;;4.63;1.55;;;18.50;44.60;;;;;;5052189;28;20033;-62
2023/04/13 16:54:24;;;;;;;6.05;1.40;;;18.50;44.20;;;;;;5034525;28;20025;-61
2023/04/13 16:56:51;;;;;;;3.38;0.90;;;18.40;44.30;;;;;;5055678;28;20017;-61
2023/04/13 16:59:17;;;;;;;5.25;1.27;;;18.20;45.50;;;;;;5071638;28;20102;-61
2023/04/13 17:01:43;;;;;;;2.03;0.52;;;18.30;45.10;;;;;;5065660;28;20059;-62
2023/04/13 17:04:09;;;;;;;4.28;1.08;;;18.50;45.60;;;;;;5036676;28;20470;-62
2023/04/13 17:06:36;;;;;;;6.65;1.10;;;18.50;45.20;;;;;;5046673;28;20024;-62
2023/04/13 17:09:04;;;;;;;3.42;0.77;;;18.60;44.60;;;;;;5052258;28;20017;-62
2023/04/13 17:11:29;;;;;;;4.72;1.17;;;18.40;44.90;;;;;;5065243;28;20051;-62
2023/04/13 17:13:55;;;;;;;4.78;0.93;;;18.50;44.80;;;;;;5053665;28;20060;-62
2023/04/13 17:16:21;;;;;;;3.00;0.88;;;18.60;44.00;;;;;;5071796;28;20078;-62
2023/04/13 17:18:47;;;;;;;2.72;0.88;;;18.50;44.20;;;;;;5072051;28;20050;-62
2023/04/13 17:21:13;;;;;;;3.55;1.00;;;18.50;43.80;;;;;;5070241;28;20532;-63
2023/04/13 17:23:39;;;;;;;3.78;0.75;;;18.60;44.30;;;;;;5040700;28;20021;-62
2023/04/13 17:26:05;;;;;;;3.85;0.90;;;18.90;44.30;;;;;;5041310;28;20079;-62
2023/04/13 17:28:31;;;;;;;5.53;1.00;;;19.10;44.20;;;;;;5062250;28;20033;-62
2023/04/13 17:30:57;;;;;;;4.03;1.05;;;19.20;43.30;;;;;;5062512;28;20021;-62
2023/04/13 17:33:23;;;;;;;3.50;0.90;;;19.20;43.10;;;;;;5070910;28;20392;-62
2023/04/13 17:35:52;;;;;;;5.20;1.17;;;19.10;43.90;;;;;;5071155;28;20472;-62
2023/04/13 17:38:18;;;;;;;2.90;0.82;;;19.10;44.20;;;;;;5066816;28;20035;-62
2023/04/13 17:40:45;;;;;;;3.08;0.88;;;19.30;42.30;;;;;;5050850;28;20104;-62
2023/04/13 17:43:10;;;;;;;2.90;0.80;;;19.00;41.50;;;;;;5033132;28;20021;-62
2023/04/13 17:45:36;;;;;;;3.03;0.80;;;18.50;42.30;;;;;;5051296;28;20028;-62
2023/04/13 17:48:02;;;;;;;1.42;0.70;;;18.20;42.90;;;;;;5049945;28;20025;-62
2023/04/13 17:50:31;;;;;;;2.65;0.85;;;17.40;43.80;;;;;;5050391;28;20208;-62
2023/04/13 17:52:56;;;;;;;3.40;1.13;;;16.60;45.70;;;;;;5050815;28;20032;-62
2023/04/13 17:55:22;;;;;;;4.47;1.00;;;15.80;46.80;;;;;;5050666;28;20104;-62
2023/04/13 17:57:47;;;;;;;4.13;1.20;;;15.10;48.50;;;;;;5050491;28;20037;-62
2023/04/13 18:00:14;;;;;;;3.05;0.73;;;14.70;49.20;;;;;;5050811;28;20496;-62
2023/04/13 18:02:39;;;;;;;3.35;1.00;;;14.20;50.20;;;;;;5050489;28;20032;-62
2023/04/13 18:05:06;;;;;;;4.70;1.02;;;14.00;51.00;;;;;;5062330;28;20025;-63
2023/04/13 18:07:32;;;;;;;5.10;1.00;;;13.70;51.50;;;;;;5070272;28;20477;-63
2023/04/13 18:09:57;;;;;;;1.55;0.52;;;13.50;52.20;;;;;;5070624;28;20028;-62
2023/04/13 18:12:23;;;;;;;2.38;0.70;;;13.40;53.60;;;;;;5045647;28;20071;-63
2023/04/13 18:14:48;;;;;;;2.85;0.77;;;13.20;53.30;;;;;;5056736;28;20025;-63
2023/04/13 18:17:15;;;;;;;2.28;0.73;;;13.00;53.80;;;;;;5051932;28;20074;-62
2023/04/13 18:19:41;;;;;;;3.80;1.30;;;12.90;55.30;;;;;;5071223;28;20025;-62
2023/04/13 18:22:06;;;;;;;3.22;1.00;;;12.80;55.30;;;;;;5053479;28;20174;-62
2023/04/13 18:24:32;;;;;;;3.58;1.05;;;12.70;56.00;;;;;;5070304;28;20516;-63
2023/04/13 18:26:58;;;;;;;3.38;1.25;;;12.60;56.40;;;;;;5071770;28;20469;-63
2023/04/13 18:29:23;;;;;;;3.95;1.42;;;12.50;56.60;;;;;;5070317;28;20380;-63
2023/04/13 18:31:49;;;;;;;4.95;1.30;;;12.40;57.60;;;;;;5071203;28;20028;-63
2023/04/13 18:34:14;;;;;;;5.28;1.10;;;12.40;58.20;;;;;;5071082;28;20028;-63
2023/04/13 18:36:41;;;;;;;2.42;0.93;;;12.30;59.10;;;;;;5070691;28;20487;-62
2023/04/13 18:39:06;;;;;;;5.22;1.45;;;12.30;59.70;;;;;;5051973;28;20032;-63
2023/04/13 18:41:32;;;;;;;4.03;1.40;;;12.30;60.60;;;;;;5053002;28;20028;-63
2023/04/13 18:43:58;;;;;;;4.35;1.50;;;12.20;61.40;;;;;;5070410;28;20047;-63
2023/04/13 18:46:25;;;;;;;3.92;1.25;;;12.20;62.40;;;;;;5052882;28;20481;-63
2023/04/13 18:48:51;;;;;;;4.93;1.70;;;12.10;63.80;;;;;;5071134;28;20016;-63
2023/04/13 18:51:17;;;;;;;3.28;1.35;;;12.10;64.70;;;;;;5057962;28;20043;-63
2023/04/13 18:53:43;;;;;;;6.90;1.90;;;12.00;65.40;;;;;;5065665;28;20427;-63
2023/04/13 18:56:08;;;;;;;4.47;1.25;;;11.90;66.20;;;;;;5058900;28;20112;-63
2023/04/13 18:58:34;;;;;;;6.32;1.48;;;11.80;66.70;;;;;;5070503;28;20409;-63
2023/04/13 19:01:00;;;;;;;3.40;1.48;;;11.70;67.30;;;;;;5066712;28;20024;-63
2023/04/13 19:03:25;;;;;;;5.13;1.55;;;11.60;68.10;;;;;;5053005;28;20024;-63
2023/04/13 19:05:51;;;;;;;8.52;2.22;;;11.50;68.70;;;;;;5051530;28;20035;-63
2023/04/13 19:08:16;;;;;;;5.00;1.83;;;11.40;68.90;;;;;;5070950;28;20056;-65
2023/04/13 19:10:42;;;;;;;4.70;1.98;;;11.30;68.50;;;;;;5068062;28;20099;-64
2023/04/13 19:13:07;;;;;;;3.63;1.50;;;11.20;69.40;;;;;;5041095;28;20021;-62
2023/04/13 19:15:34;;;;;;;3.08;1.55;;;11.10;70.40;;;;;;5070918;28;20464;-65
2023/04/13 19:18:01;;;;;;;7.07;2.17;;;11.00;70.90;;;;;;5058694;28;20036;-64
2023/04/13 19:20:26;;;;;;;7.25;2.75;;;10.90;71.70;;;;;;5032489;28;20079;-65
2023/04/13 19:22:52;;;;;;;6.43;2.58;;;10.80;72.20;;;;;;5052619;28;20037;-64
2023/04/13 19:25:18;;;;;;;9.23;3.35;;;10.70;73.00;;;;;;5051331;28;20048;-63
2023/04/13 19:27:44;;;;;;;9.20;3.60;;;10.60;74.00;;;;;;5070451;28;20041;-63
2023/04/13 19:30:11;;;;;;;9.05;3.72;;;10.60;74.70;;;;;;5070693;28;20104;-62
2023/04/13 19:32:38;;;;;;;7.68;4.50;;;10.50;75.40;;;;;;5070641;28;20434;-64
2023/04/13 19:35:05;;;;;;;10.70;5.25;;;10.40;76.10;;;;;;5052967;28;20024;-65
2023/04/13 19:37:31;;;;;;;10.75;4.30;;;10.40;77.10;;;;;;5070772;28;20029;-64
2023/04/13 19:39:57;;;;;;;7.28;3.70;;;10.30;77.80;;;;;;5065274;28;20071;-62
2023/04/13 19:42:24;;;;;;;11.52;4.35;;;10.20;78.70;;;;;;5050608;28;20029;-62
2023/04/13 19:44:50;;;;;;;8.23;3.95;;;10.20;79.70;;;;;;5053429;28;20009;-65
2023/04/13 19:47:15;;;;;;;7.10;3.60;;;10.10;80.40;;;;;;5073818;28;20021;-65
2023/04/13 19:49:41;;;;;;;8.05;3.22;;;10.00;81.70;;;;;;5074705;28;20086;-65
2023/04/13 19:52:09;;;;;;;9.77;4.43;;;10.00;82.30;;;;;;5056673;28;20027;-62
2023/04/13 19:54:35;;;;;;;6.93;3.78;;;10.00;83.10;;;;;;5073924;28;20023;-64
2023/04/13 19:57:00;;;;;;;8.63;3.60;;;9.90;83.60;;;;;;5056693;28;20025;-63
2023/04/13 19:59:26;;;;;;;6.70;3.92;;;9.80;84.50;;;;;;5054279;28;20045;-65
2023/04/13 20:01:52;;;;;;;12.10;4.40;;;9.80;85.50;;;;;;5064363;28;20794;-64
2023/04/13 20:04:17;;;;;;;13.43;5.32;;;9.80;86.10;;;;;;5074130;28;20036;-63
2023/04/13 20:06:43;;;;;;;11.00;5.82;;;9.70;86.60;;;;;;5074255;28;20103;-64
2023/04/13 20:09:13;;;;;;;10.18;5.55;;;9.60;87.20;;;;;;5071193;28;20056;-65
2023/04/13 20:11:40;;;;;;;11.43;5.43;;;9.50;87.80;;;;;;5074590;28;20077;-64
2023/04/13 20:14:06;;;;;;;10.55;5.05;;;9.50;88.40;;;;;;5061387;28;20075;-63
2023/04/13 20:16:34;;;;;;;11.43;4.80;;;9.30;88.80;;;;;;5054717;28;20025;-62
2023/04/13 20:19:00;;;;;;;11.32;5.07;;;9.30;89.30;;;;;;5050780;28;20123;-65
